Terminal Aerodrome Forecast
Issued by NWS

Current Version | Previous Version | Text Only | Print | Product List | Glossary On
Versions: 1 2 3 4 5 6 7 8 9 10 11 12 13 14 15 16 17
000
FTUS45 KABQ 302300
TAFGUP
TAF
KGUP 302333Z 3100/3124 24010KT P6SM VCTS SCT080CB
     FM310300 33010G20KT P6SM VCSH BKN080
     FM310800 06006KT P6SM BKN080
     FM311800 27010KT P6SM VCSH BKN080
     FM312000 30015G25KT P6SM VCTS BKN080CB
     FM312200 30010G20KT P6SM VCSH OVC080=

USA.gov is the U.S. government's official web portal to all federal, state and local government web resources and services.